sensor_id;sensor_type;location;lat;lon;timestamp;temperature;humidity
7218;DHT22;3650;53.580;10.094;2023-05-27T00:00:06;12.80;71.50
7218;DHT22;3650;53.580;10.094;2023-05-27T00:02:34;12.80;72.20
7218;DHT22;3650;53.580;10.094;2023-05-27T00:05:03;12.80;72.70
7218;DHT22;3650;53.580;10.094;2023-05-27T00:07:30;12.80;72.90
7218;DHT22;3650;53.580;10.094;2023-05-27T00:09:57;12.80;73.30
7218;DHT22;3650;53.580;10.094;2023-05-27T00:12:24;12.70;73.60
7218;DHT22;3650;53.580;10.094;2023-05-27T00:14:50;12.70;75.00
7218;DHT22;3650;53.580;10.094;2023-05-27T00:17:17;12.70;74.40
7218;DHT22;3650;53.580;10.094;2023-05-27T00:19:45;12.70;74.90
7218;DHT22;3650;53.580;10.094;2023-05-27T00:22:14;12.70;75.80
7218;DHT22;3650;53.580;10.094;2023-05-27T00:24:41;12.70;75.20
7218;DHT22;3650;53.580;10.094;2023-05-27T00:27:09;12.60;75.70
7218;DHT22;3650;53.580;10.094;2023-05-27T00:29:36;12.60;75.70
7218;DHT22;3650;53.580;10.094;2023-05-27T00:32:03;12.60;75.70
7218;DHT22;3650;53.580;10.094;2023-05-27T00:34:30;12.60;75.70
7218;DHT22;3650;53.580;10.094;2023-05-27T00:36:58;12.50;75.60
7218;DHT22;3650;53.580;10.094;2023-05-27T00:39:26;12.50;76.60
7218;DHT22;3650;53.580;10.094;2023-05-27T00:41:54;12.50;77.40
7218;DHT22;3650;53.580;10.094;2023-05-27T00:44:21;12.50;78.20
7218;DHT22;3650;53.580;10.094;2023-05-27T00:46:48;12.50;78.70
7218;DHT22;3650;53.580;10.094;2023-05-27T00:49:15;12.50;79.50
7218;DHT22;3650;53.580;10.094;2023-05-27T00:51:42;12.50;79.30
7218;DHT22;3650;53.580;10.094;2023-05-27T00:54:09;12.50;78.60
7218;DHT22;3650;53.580;10.094;2023-05-27T00:56:39;12.50;78.00
7218;DHT22;3650;53.580;10.094;2023-05-27T00:59:06;12.50;78.50
7218;DHT22;3650;53.580;10.094;2023-05-27T01:01:33;12.40;78.00
7218;DHT22;3650;53.580;10.094;2023-05-27T01:04:03;12.40;77.70
7218;DHT22;3650;53.580;10.094;2023-05-27T01:06:44;12.40;78.10
7218;DHT22;3650;53.580;10.094;2023-05-27T01:09:20;12.40;78.90
7218;DHT22;3650;53.580;10.094;2023-05-27T01:11:57;12.30;79.30
7218;DHT22;3650;53.580;10.094;2023-05-27T01:14:28;12.30;80.70
7218;DHT22;3650;53.580;10.094;2023-05-27T01:16:57;12.30;79.60
7218;DHT22;3650;53.580;10.094;2023-05-27T01:19:29;12.30;80.50
7218;DHT22;3650;53.580;10.094;2023-05-27T01:21:57;12.20;81.10
7218;DHT22;3650;53.580;10.094;2023-05-27T01:24:26;12.20;81.10
7218;DHT22;3650;53.580;10.094;2023-05-27T01:26:53;12.20;81.10
7218;DHT22;3650;53.580;10.094;2023-05-27T01:29:21;12.20;81.00
7218;DHT22;3650;53.580;10.094;2023-05-27T01:31:53;12.20;81.60
7218;DHT22;3650;53.580;10.094;2023-05-27T01:34:28;12.20;81.80
7218;DHT22;3650;53.580;10.094;2023-05-27T01:37:01;12.10;81.80
7218;DHT22;3650;53.580;10.094;2023-05-27T01:39:31;12.10;82.10
7218;DHT22;3650;53.580;10.094;2023-05-27T01:41:59;12.10;82.10
7218;DHT22;3650;53.580;10.094;2023-05-27T01:44:28;12.00;82.70
7218;DHT22;3650;53.580;10.094;2023-05-27T01:46:58;12.10;82.80
7218;DHT22;3650;53.580;10.094;2023-05-27T01:49:26;12.10;83.00
7218;DHT22;3650;53.580;10.094;2023-05-27T01:51:53;12.00;83.00
7218;DHT22;3650;53.580;10.094;2023-05-27T01:54:20;12.00;83.00
7218;DHT22;3650;53.580;10.094;2023-05-27T01:56:48;11.90;82.60
7218;DHT22;3650;53.580;10.094;2023-05-27T01:59:15;11.90;82.90
7218;DHT22;3650;53.580;10.094;2023-05-27T02:01:41;11.90;83.20
7218;DHT22;3650;53.580;10.094;2023-05-27T02:04:08;11.90;83.60
7218;DHT22;3650;53.580;10.094;2023-05-27T02:06:35;11.80;84.00
7218;DHT22;3650;53.580;10.094;2023-05-27T02:09:02;11.90;84.30
7218;DHT22;3650;53.580;10.094;2023-05-27T02:11:29;11.90;83.90
7218;DHT22;3650;53.580;10.094;2023-05-27T02:13:58;11.80;83.80
7218;DHT22;3650;53.580;10.094;2023-05-27T02:16:26;11.80;84.10
7218;DHT22;3650;53.580;10.094;2023-05-27T02:18:53;11.80;84.40
7218;DHT22;3650;53.580;10.094;2023-05-27T02:21:22;11.80;84.40
7218;DHT22;3650;53.580;10.094;2023-05-27T02:23:48;11.80;84.40
7218;DHT22;3650;53.580;10.094;2023-05-27T02:26:15;11.80;84.50
7218;DHT22;3650;53.580;10.094;2023-05-27T02:28:42;11.90;84.60
7218;DHT22;3650;53.580;10.094;2023-05-27T02:31:10;11.80;85.00
7218;DHT22;3650;53.580;10.094;2023-05-27T02:33:37;11.80;85.40
7218;DHT22;3650;53.580;10.094;2023-05-27T02:36:04;11.70;85.30
7218;DHT22;3650;53.580;10.094;2023-05-27T02:38:32;11.70;85.70
7218;DHT22;3650;53.580;10.094;2023-05-27T02:40:58;11.70;85.80
7218;DHT22;3650;53.580;10.094;2023-05-27T02:43:25;11.70;85.00
7218;DHT22;3650;53.580;10.094;2023-05-27T02:45:52;11.70;84.70
7218;DHT22;3650;53.580;10.094;2023-05-27T02:48:20;11.60;83.60
7218;DHT22;3650;53.580;10.094;2023-05-27T02:50:47;11.60;83.80
7218;DHT22;3650;53.580;10.094;2023-05-27T02:53:14;11.70;84.40
7218;DHT22;3650;53.580;10.094;2023-05-27T02:55:41;11.60;85.50
7218;DHT22;3650;53.580;10.094;2023-05-27T02:58:08;11.60;85.70
7218;DHT22;3650;53.580;10.094;2023-05-27T03:00:34;11.60;85.70
7218;DHT22;3650;53.580;10.094;2023-05-27T03:03:01;11.60;86.40
7218;DHT22;3650;53.580;10.094;2023-05-27T03:05:31;11.50;86.40
7218;DHT22;3650;53.580;10.094;2023-05-27T03:07:57;11.50;85.60
7218;DHT22;3650;53.580;10.094;2023-05-27T03:10:24;11.40;84.90
7218;DHT22;3650;53.580;10.094;2023-05-27T03:12:53;11.40;86.60
7218;DHT22;3650;53.580;10.094;2023-05-27T03:15:20;11.50;86.60
7218;DHT22;3650;53.580;10.094;2023-05-27T03:17:47;11.50;86.70
7218;DHT22;3650;53.580;10.094;2023-05-27T03:20:14;11.40;86.50
7218;DHT22;3650;53.580;10.094;2023-05-27T03:22:43;11.30;85.80
7218;DHT22;3650;53.580;10.094;2023-05-27T03:25:10;11.30;86.10
7218;DHT22;3650;53.580;10.094;2023-05-27T03:27:37;11.30;86.40
7218;DHT22;3650;53.580;10.094;2023-05-27T03:30:06;11.20;87.10
7218;DHT22;3650;53.580;10.094;2023-05-27T03:32:33;11.30;88.50
7218;DHT22;3650;53.580;10.094;2023-05-27T03:35:00;11.30;89.00
7218;DHT22;3650;53.580;10.094;2023-05-27T03:37:27;11.30;89.00
7218;DHT22;3650;53.580;10.094;2023-05-27T03:39:55;11.30;88.90
7218;DHT22;3650;53.580;10.094;2023-05-27T03:42:22;11.30;89.70
7218;DHT22;3650;53.580;10.094;2023-05-27T03:44:49;11.30;89.30
7218;DHT22;3650;53.580;10.094;2023-05-27T03:47:16;11.30;89.40
7218;DHT22;3650;53.580;10.094;2023-05-27T03:49:46;11.20;89.60
7218;DHT22;3650;53.580;10.094;2023-05-27T03:52:13;11.30;90.10
7218;DHT22;3650;53.580;10.094;2023-05-27T03:54:40;11.30;90.30
7218;DHT22;3650;53.580;10.094;2023-05-27T03:57:08;11.20;90.20
7218;DHT22;3650;53.580;10.094;2023-05-27T03:59:36;11.30;90.10
7218;DHT22;3650;53.580;10.094;2023-05-27T04:02:03;11.30;90.10
7218;DHT22;3650;53.580;10.094;2023-05-27T04:04:29;11.30;90.00
7218;DHT22;3650;53.580;10.094;2023-05-27T04:06:56;11.20;90.00
7218;DHT22;3650;53.580;10.094;2023-05-27T04:09:23;11.20;90.10
7218;DHT22;3650;53.580;10.094;2023-05-27T04:11:50;11.20;90.10
7218;DHT22;3650;53.580;10.094;2023-05-27T04:14:18;11.20;90.30
7218;DHT22;3650;53.580;10.094;2023-05-27T04:16:45;11.20;90.30
7218;DHT22;3650;53.580;10.094;2023-05-27T04:19:12;11.20;90.30
7218;DHT22;3650;53.580;10.094;2023-05-27T04:21:40;11.20;90.30
7218;DHT22;3650;53.580;10.094;2023-05-27T04:24:07;11.20;90.60
7218;DHT22;3650;53.580;10.094;2023-05-27T04:26:34;11.30;90.80
7218;DHT22;3650;53.580;10.094;2023-05-27T04:29:01;11.30;90.90
7218;DHT22;3650;53.580;10.094;2023-05-27T04:31:31;11.30;90.80
7218;DHT22;3650;53.580;10.094;2023-05-27T04:34:02;11.30;90.90
7218;DHT22;3650;53.580;10.094;2023-05-27T04:36:29;11.30;91.00
7218;DHT22;3650;53.580;10.094;2023-05-27T04:38:58;11.40;91.00
7218;DHT22;3650;53.580;10.094;2023-05-27T04:41:26;11.40;90.80
7218;DHT22;3650;53.580;10.094;2023-05-27T04:43:54;11.40;90.70
7218;DHT22;3650;53.580;10.094;2023-05-27T04:46:22;11.50;90.80
7218;DHT22;3650;53.580;10.094;2023-05-27T04:48:52;11.40;90.80
7218;DHT22;3650;53.580;10.094;2023-05-27T04:51:19;11.40;90.70
7218;DHT22;3650;53.580;10.094;2023-05-27T04:53:46;11.40;90.40
7218;DHT22;3650;53.580;10.094;2023-05-27T04:56:14;11.40;90.50
7218;DHT22;3650;53.580;10.094;2023-05-27T04:58:43;11.40;90.40
7218;DHT22;3650;53.580;10.094;2023-05-27T05:01:12;11.40;89.70
7218;DHT22;3650;53.580;10.094;2023-05-27T05:03:43;11.40;90.10
7218;DHT22;3650;53.580;10.094;2023-05-27T05:06:19;11.40;90.10
7218;DHT22;3650;53.580;10.094;2023-05-27T05:08:48;11.50;90.10
7218;DHT22;3650;53.580;10.094;2023-05-27T05:11:14;11.50;90.30
7218;DHT22;3650;53.580;10.094;2023-05-27T05:13:41;11.50;90.20
7218;DHT22;3650;53.580;10.094;2023-05-27T05:16:08;11.50;90.30
7218;DHT22;3650;53.580;10.094;2023-05-27T05:18:35;11.50;90.20
7218;DHT22;3650;53.580;10.094;2023-05-27T05:21:02;11.50;90.40
7218;DHT22;3650;53.580;10.094;2023-05-27T05:23:30;11.50;90.40
7218;DHT22;3650;53.580;10.094;2023-05-27T05:25:57;11.50;90.40
7218;DHT22;3650;53.580;10.094;2023-05-27T05:28:31;11.50;90.40
7218;DHT22;3650;53.580;10.094;2023-05-27T05:30:58;11.60;90.60
7218;DHT22;3650;53.580;10.094;2023-05-27T05:33:25;11.60;90.80
7218;DHT22;3650;53.580;10.094;2023-05-27T05:35:52;11.70;90.90
7218;DHT22;3650;53.580;10.094;2023-05-27T05:38:19;11.70;90.90
7218;DHT22;3650;53.580;10.094;2023-05-27T05:40:47;11.80;91.00
7218;DHT22;3650;53.580;10.094;2023-05-27T05:43:17;11.80;91.00
7218;DHT22;3650;53.580;10.094;2023-05-27T05:45:44;11.80;91.00
7218;DHT22;3650;53.580;10.094;2023-05-27T05:48:11;11.90;91.10
7218;DHT22;3650;53.580;10.094;2023-05-27T05:50:38;11.90;91.10
7218;DHT22;3650;53.580;10.094;2023-05-27T05:53:04;12.00;91.20
7218;DHT22;3650;53.580;10.094;2023-05-27T05:55:31;12.00;91.30
7218;DHT22;3650;53.580;10.094;2023-05-27T05:57:59;12.10;91.30
7218;DHT22;3650;53.580;10.094;2023-05-27T06:00:26;12.10;91.20
7218;DHT22;3650;53.580;10.094;2023-05-27T06:02:53;12.20;91.20
7218;DHT22;3650;53.580;10.094;2023-05-27T06:05:20;12.20;91.30
7218;DHT22;3650;53.580;10.094;2023-05-27T06:07:47;12.30;91.40
7218;DHT22;3650;53.580;10.094;2023-05-27T06:10:14;12.30;91.30
7218;DHT22;3650;53.580;10.094;2023-05-27T06:12:42;12.40;91.40
7218;DHT22;3650;53.580;10.094;2023-05-27T06:15:10;12.40;91.40
7218;DHT22;3650;53.580;10.094;2023-05-27T06:17:38;12.50;91.60
7218;DHT22;3650;53.580;10.094;2023-05-27T06:20:06;12.50;91.60
7218;DHT22;3650;53.580;10.094;2023-05-27T06:22:33;12.60;91.80
7218;DHT22;3650;53.580;10.094;2023-05-27T06:24:59;12.60;91.80
7218;DHT22;3650;53.580;10.094;2023-05-27T06:27:26;12.70;91.70
7218;DHT22;3650;53.580;10.094;2023-05-27T06:29:53;12.80;91.60
7218;DHT22;3650;53.580;10.094;2023-05-27T06:32:21;12.80;91.50
7218;DHT22;3650;53.580;10.094;2023-05-27T06:34:48;12.90;91.50
7218;DHT22;3650;53.580;10.094;2023-05-27T06:37:15;12.90;91.10
7218;DHT22;3650;53.580;10.094;2023-05-27T06:39:41;13.00;91.00
7218;DHT22;3650;53.580;10.094;2023-05-27T06:42:08;13.10;91.30
7218;DHT22;3650;53.580;10.094;2023-05-27T06:44:35;13.10;90.90
7218;DHT22;3650;53.580;10.094;2023-05-27T06:47:02;13.10;91.00
7218;DHT22;3650;53.580;10.094;2023-05-27T06:49:30;13.20;90.60
7218;DHT22;3650;53.580;10.094;2023-05-27T06:51:57;13.30;90.60
7218;DHT22;3650;53.580;10.094;2023-05-27T06:54:24;13.30;90.70
7218;DHT22;3650;53.580;10.094;2023-05-27T06:56:50;13.30;90.70
7218;DHT22;3650;53.580;10.094;2023-05-27T06:59:17;13.40;90.70
7218;DHT22;3650;53.580;10.094;2023-05-27T07:01:44;13.40;90.80
7218;DHT22;3650;53.580;10.094;2023-05-27T07:04:11;13.50;90.80
7218;DHT22;3650;53.580;10.094;2023-05-27T07:06:39;13.60;90.70
7218;DHT22;3650;53.580;10.094;2023-05-27T07:09:06;13.60;90.50
7218;DHT22;3650;53.580;10.094;2023-05-27T07:11:33;13.70;90.40
7218;DHT22;3650;53.580;10.094;2023-05-27T07:13:59;13.70;90.20
7218;DHT22;3650;53.580;10.094;2023-05-27T07:16:26;13.70;90.10
7218;DHT22;3650;53.580;10.094;2023-05-27T07:18:53;13.80;90.00
7218;DHT22;3650;53.580;10.094;2023-05-27T07:21:20;13.90;89.50
7218;DHT22;3650;53.580;10.094;2023-05-27T07:23:48;13.90;89.50
7218;DHT22;3650;53.580;10.094;2023-05-27T07:26:15;14.00;89.70
7218;DHT22;3650;53.580;10.094;2023-05-27T07:28:43;14.00;89.60
7218;DHT22;3650;53.580;10.094;2023-05-27T07:31:10;14.10;89.50
7218;DHT22;3650;53.580;10.094;2023-05-27T07:33:36;14.20;89.30
7218;DHT22;3650;53.580;10.094;2023-05-27T07:36:03;14.20;88.50
7218;DHT22;3650;53.580;10.094;2023-05-27T07:38:30;14.30;88.00
7218;DHT22;3650;53.580;10.094;2023-05-27T07:40:58;14.30;86.50
7218;DHT22;3650;53.580;10.094;2023-05-27T07:43:25;14.30;86.00
7218;DHT22;3650;53.580;10.094;2023-05-27T07:45:52;14.40;85.60
7218;DHT22;3650;53.580;10.094;2023-05-27T07:48:19;14.50;84.10
7218;DHT22;3650;53.580;10.094;2023-05-27T07:50:46;14.50;83.30
7218;DHT22;3650;53.580;10.094;2023-05-27T07:53:12;14.50;83.10
7218;DHT22;3650;53.580;10.094;2023-05-27T07:55:39;14.50;82.80
7218;DHT22;3650;53.580;10.094;2023-05-27T07:58:07;14.60;83.00
7218;DHT22;3650;53.580;10.094;2023-05-27T08:00:34;14.60;82.80
7218;DHT22;3650;53.580;10.094;2023-05-27T08:03:01;14.70;82.10
7218;DHT22;3650;53.580;10.094;2023-05-27T08:05:28;14.70;80.30
7218;DHT22;3650;53.580;10.094;2023-05-27T08:07:54;14.70;78.90
7218;DHT22;3650;53.580;10.094;2023-05-27T08:10:22;14.80;78.90
7218;DHT22;3650;53.580;10.094;2023-05-27T08:12:48;14.80;78.60
7218;DHT22;3650;53.580;10.094;2023-05-27T08:15:17;14.80;77.60
7218;DHT22;3650;53.580;10.094;2023-05-27T08:17:44;14.90;77.70
7218;DHT22;3650;53.580;10.094;2023-05-27T08:20:11;14.90;76.80
7218;DHT22;3650;53.580;10.094;2023-05-27T08:22:38;14.90;75.30
7218;DHT22;3650;53.580;10.094;2023-05-27T08:25:05;15.00;74.90
7218;DHT22;3650;53.580;10.094;2023-05-27T08:27:45;15.00;74.20
7218;DHT22;3650;53.580;10.094;2023-05-27T08:30:13;15.10;73.30
7218;DHT22;3650;53.580;10.094;2023-05-27T08:32:42;15.10;72.80
7218;DHT22;3650;53.580;10.094;2023-05-27T08:35:09;15.10;72.30
7218;DHT22;3650;53.580;10.094;2023-05-27T08:37:37;15.20;72.40
7218;DHT22;3650;53.580;10.094;2023-05-27T08:40:06;15.20;72.30
7218;DHT22;3650;53.580;10.094;2023-05-27T08:42:34;15.30;70.90
7218;DHT22;3650;53.580;10.094;2023-05-27T08:45:01;15.30;69.50
7218;DHT22;3650;53.580;10.094;2023-05-27T08:47:28;15.30;68.60
7218;DHT22;3650;53.580;10.094;2023-05-27T08:49:57;15.40;68.20
7218;DHT22;3650;53.580;10.094;2023-05-27T08:52:27;15.40;68.20
7218;DHT22;3650;53.580;10.094;2023-05-27T08:54:56;15.40;67.00
7218;DHT22;3650;53.580;10.094;2023-05-27T08:57:27;15.50;66.60
7218;DHT22;3650;53.580;10.094;2023-05-27T08:59:55;15.50;65.00
7218;DHT22;3650;53.580;10.094;2023-05-27T09:02:22;15.60;64.50
7218;DHT22;3650;53.580;10.094;2023-05-27T09:04:49;15.60;63.80
7218;DHT22;3650;53.580;10.094;2023-05-27T09:07:19;15.70;63.70
7218;DHT22;3650;53.580;10.094;2023-05-27T09:09:55;15.70;62.60
7218;DHT22;3650;53.580;10.094;2023-05-27T09:12:23;15.80;62.00
7218;DHT22;3650;53.580;10.094;2023-05-27T09:14:51;15.80;60.80
7218;DHT22;3650;53.580;10.094;2023-05-27T09:17:21;15.80;60.10
7218;DHT22;3650;53.580;10.094;2023-05-27T09:19:50;15.90;59.80
7218;DHT22;3650;53.580;10.094;2023-05-27T09:22:22;15.80;59.00
7218;DHT22;3650;53.580;10.094;2023-05-27T09:24:49;15.90;58.40
7218;DHT22;3650;53.580;10.094;2023-05-27T09:27:17;15.90;57.80
7218;DHT22;3650;53.580;10.094;2023-05-27T09:29:44;15.90;56.30
7218;DHT22;3650;53.580;10.094;2023-05-27T09:32:10;15.90;56.20
7218;DHT22;3650;53.580;10.094;2023-05-27T09:34:38;16.00;56.20
7218;DHT22;3650;53.580;10.094;2023-05-27T09:37:05;16.00;56.10
7218;DHT22;3650;53.580;10.094;2023-05-27T09:39:41;16.00;55.30
7218;DHT22;3650;53.580;10.094;2023-05-27T09:42:08;16.10;54.80
7218;DHT22;3650;53.580;10.094;2023-05-27T09:44:35;16.10;54.80
7218;DHT22;3650;53.580;10.094;2023-05-27T09:47:07;16.20;55.70
7218;DHT22;3650;53.580;10.094;2023-05-27T09:49:37;16.20;56.10
7218;DHT22;3650;53.580;10.094;2023-05-27T09:52:05;16.30;56.50
7218;DHT22;3650;53.580;10.094;2023-05-27T09:54:33;16.40;56.50
7218;DHT22;3650;53.580;10.094;2023-05-27T09:57:03;16.40;55.80
7218;DHT22;3650;53.580;10.094;2023-05-27T09:59:32;16.50;55.30
7218;DHT22;3650;53.580;10.094;2023-05-27T10:02:00;16.50;54.50
7218;DHT22;3650;53.580;10.094;2023-05-27T10:04:28;16.50;54.20
7218;DHT22;3650;53.580;10.094;2023-05-27T10:06:56;16.60;55.20
7218;DHT22;3650;53.580;10.094;2023-05-27T10:09:23;16.60;54.90
7218;DHT22;3650;53.580;10.094;2023-05-27T10:11:51;16.70;52.90
7218;DHT22;3650;53.580;10.094;2023-05-27T10:14:20;16.70;53.20
7218;DHT22;3650;53.580;10.094;2023-05-27T10:16:55;16.70;53.50
7218;DHT22;3650;53.580;10.094;2023-05-27T10:19:22;16.70;53.00
7218;DHT22;3650;53.580;10.094;2023-05-27T10:21:49;16.70;52.40
7218;DHT22;3650;53.580;10.094;2023-05-27T10:24:16;16.70;52.20
7218;DHT22;3650;53.580;10.094;2023-05-27T10:26:44;16.80;51.90
7218;DHT22;3650;53.580;10.094;2023-05-27T10:29:13;16.80;50.90
7218;DHT22;3650;53.580;10.094;2023-05-27T10:31:47;16.80;51.50
7218;DHT22;3650;53.580;10.094;2023-05-27T10:34:14;16.80;50.90
7218;DHT22;3650;53.580;10.094;2023-05-27T10:36:43;16.90;49.50
7218;DHT22;3650;53.580;10.094;2023-05-27T10:39:14;16.90;49.80
7218;DHT22;3650;53.580;10.094;2023-05-27T10:41:42;17.00;50.40
7218;DHT22;3650;53.580;10.094;2023-05-27T10:44:10;17.00;46.20
7218;DHT22;3650;53.580;10.094;2023-05-27T10:46:41;17.10;48.30
7218;DHT22;3650;53.580;10.094;2023-05-27T10:49:13;17.20;48.10
7218;DHT22;3650;53.580;10.094;2023-05-27T10:51:42;17.20;48.20
7218;DHT22;3650;53.580;10.094;2023-05-27T10:54:09;17.30;48.90
7218;DHT22;3650;53.580;10.094;2023-05-27T10:56:37;17.30;48.80
7218;DHT22;3650;53.580;10.094;2023-05-27T10:59:05;17.40;48.70
7218;DHT22;3650;53.580;10.094;2023-05-27T11:01:35;17.50;48.00
7218;DHT22;3650;53.580;10.094;2023-05-27T11:04:06;17.50;47.50
7218;DHT22;3650;53.580;10.094;2023-05-27T11:06:34;17.70;47.30
7218;DHT22;3650;53.580;10.094;2023-05-27T11:09:01;17.70;44.50
7218;DHT22;3650;53.580;10.094;2023-05-27T11:11:28;17.80;44.90
7218;DHT22;3650;53.580;10.094;2023-05-27T11:13:55;17.90;45.90
7218;DHT22;3650;53.580;10.094;2023-05-27T11:16:22;18.00;45.90
7218;DHT22;3650;53.580;10.094;2023-05-27T11:18:48;18.00;46.20
7218;DHT22;3650;53.580;10.094;2023-05-27T11:21:16;18.10;45.40
7218;DHT22;3650;53.580;10.094;2023-05-27T11:23:46;18.20;45.40
7218;DHT22;3650;53.580;10.094;2023-05-27T11:26:14;18.20;45.80
7218;DHT22;3650;53.580;10.094;2023-05-27T11:28:49;18.30;41.80
7218;DHT22;3650;53.580;10.094;2023-05-27T11:31:16;18.30;40.20
7218;DHT22;3650;53.580;10.094;2023-05-27T11:33:46;18.40;40.20
7218;DHT22;3650;53.580;10.094;2023-05-27T11:36:14;18.40;40.50
7218;DHT22;3650;53.580;10.094;2023-05-27T11:38:53;18.40;40.40
7218;DHT22;3650;53.580;10.094;2023-05-27T11:41:22;18.40;40.20
7218;DHT22;3650;53.580;10.094;2023-05-27T11:43:52;18.40;40.20
7218;DHT22;3650;53.580;10.094;2023-05-27T11:46:19;18.40;39.20
7218;DHT22;3650;53.580;10.094;2023-05-27T11:48:46;18.40;38.20
7218;DHT22;3650;53.580;10.094;2023-05-27T11:51:13;18.40;37.50
7218;DHT22;3650;53.580;10.094;2023-05-27T11:53:40;18.40;37.70
7218;DHT22;3650;53.580;10.094;2023-05-27T11:56:09;18.40;38.10
7218;DHT22;3650;53.580;10.094;2023-05-27T11:58:36;18.30;37.00
7218;DHT22;3650;53.580;10.094;2023-05-27T12:01:03;18.30;37.30
7218;DHT22;3650;53.580;10.094;2023-05-27T12:03:32;18.30;36.90
7218;DHT22;3650;53.580;10.094;2023-05-27T12:05:59;18.30;37.60
7218;DHT22;3650;53.580;10.094;2023-05-27T12:08:26;18.20;38.50
7218;DHT22;3650;53.580;10.094;2023-05-27T12:10:53;18.30;40.30
7218;DHT22;3650;53.580;10.094;2023-05-27T12:13:21;18.40;42.20
7218;DHT22;3650;53.580;10.094;2023-05-27T12:15:48;18.50;38.60
7218;DHT22;3650;53.580;10.094;2023-05-27T12:18:16;18.50;39.90
7218;DHT22;3650;53.580;10.094;2023-05-27T12:20:43;18.60;40.80
7218;DHT22;3650;53.580;10.094;2023-05-27T12:23:10;18.70;39.60
7218;DHT22;3650;53.580;10.094;2023-05-27T12:25:37;18.80;39.40
7218;DHT22;3650;53.580;10.094;2023-05-27T12:28:06;18.80;39.60
7218;DHT22;3650;53.580;10.094;2023-05-27T12:30:35;18.90;40.10
7218;DHT22;3650;53.580;10.094;2023-05-27T12:33:02;19.00;40.30
7218;DHT22;3650;53.580;10.094;2023-05-27T12:35:30;19.00;39.60
7218;DHT22;3650;53.580;10.094;2023-05-27T12:37:57;19.10;37.90
7218;DHT22;3650;53.580;10.094;2023-05-27T12:40:24;19.10;39.20
7218;DHT22;3650;53.580;10.094;2023-05-27T12:42:51;19.20;39.80
7218;DHT22;3650;53.580;10.094;2023-05-27T12:45:18;19.30;40.30
7218;DHT22;3650;53.580;10.094;2023-05-27T12:47:48;19.30;36.50
7218;DHT22;3650;53.580;10.094;2023-05-27T12:50:16;19.40;36.70
7218;DHT22;3650;53.580;10.094;2023-05-27T12:52:43;19.40;36.60
7218;DHT22;3650;53.580;10.094;2023-05-27T12:55:12;19.50;37.30
7218;DHT22;3650;53.580;10.094;2023-05-27T12:57:39;19.50;37.50
7218;DHT22;3650;53.580;10.094;2023-05-27T13:00:07;19.60;36.80
7218;DHT22;3650;53.580;10.094;2023-05-27T13:02:35;19.60;35.90
7218;DHT22;3650;53.580;10.094;2023-05-27T13:05:04;19.70;35.60
7218;DHT22;3650;53.580;10.094;2023-05-27T13:07:32;19.70;36.30
7218;DHT22;3650;53.580;10.094;2023-05-27T13:10:00;19.80;36.30
7218;DHT22;3650;53.580;10.094;2023-05-27T13:12:28;19.90;36.80
7218;DHT22;3650;53.580;10.094;2023-05-27T13:14:55;19.90;35.00
7218;DHT22;3650;53.580;10.094;2023-05-27T13:17:22;20.00;33.10
7218;DHT22;3650;53.580;10.094;2023-05-27T13:19:49;20.00;33.30
7218;DHT22;3650;53.580;10.094;2023-05-27T13:22:17;20.00;34.30
7218;DHT22;3650;53.580;10.094;2023-05-27T13:24:44;20.10;36.90
7218;DHT22;3650;53.580;10.094;2023-05-27T13:27:11;20.20;33.40
7218;DHT22;3650;53.580;10.094;2023-05-27T13:29:39;20.20;33.40
7218;DHT22;3650;53.580;10.094;2023-05-27T13:32:06;20.30;33.50
7218;DHT22;3650;53.580;10.094;2023-05-27T13:34:34;20.30;35.00
7218;DHT22;3650;53.580;10.094;2023-05-27T13:37:02;20.40;34.60
7218;DHT22;3650;53.580;10.094;2023-05-27T13:39:30;20.40;33.30
7218;DHT22;3650;53.580;10.094;2023-05-27T13:41:57;20.40;33.90
7218;DHT22;3650;53.580;10.094;2023-05-27T13:44:24;20.40;32.30
7218;DHT22;3650;53.580;10.094;2023-05-27T13:46:51;20.50;33.70
7218;DHT22;3650;53.580;10.094;2023-05-27T13:49:19;20.50;31.60
7218;DHT22;3650;53.580;10.094;2023-05-27T13:51:47;20.50;34.70
7218;DHT22;3650;53.580;10.094;2023-05-27T13:54:14;20.60;32.10
7218;DHT22;3650;53.580;10.094;2023-05-27T13:56:42;20.60;32.50
7218;DHT22;3650;53.580;10.094;2023-05-27T13:59:09;20.70;31.50
7218;DHT22;3650;53.580;10.094;2023-05-27T14:01:36;20.70;29.30
7218;DHT22;3650;53.580;10.094;2023-05-27T14:04:03;20.70;28.90
7218;DHT22;3650;53.580;10.094;2023-05-27T14:06:30;20.70;29.10
7218;DHT22;3650;53.580;10.094;2023-05-27T14:08:57;20.70;30.80
7218;DHT22;3650;53.580;10.094;2023-05-27T14:11:24;20.80;31.50
7218;DHT22;3650;53.580;10.094;2023-05-27T14:13:53;20.80;32.20
7218;DHT22;3650;53.580;10.094;2023-05-27T14:16:20;21.00;31.00
7218;DHT22;3650;53.580;10.094;2023-05-27T14:18:48;21.10;30.00
7218;DHT22;3650;53.580;10.094;2023-05-27T14:21:15;21.20;27.60
7218;DHT22;3650;53.580;10.094;2023-05-27T14:23:43;21.30;27.60
7218;DHT22;3650;53.580;10.094;2023-05-27T14:26:11;21.40;26.60
7218;DHT22;3650;53.580;10.094;2023-05-27T14:28:38;21.40;27.50
7218;DHT22;3650;53.580;10.094;2023-05-27T14:31:06;21.50;28.60
7218;DHT22;3650;53.580;10.094;2023-05-27T14:33:33;21.70;28.80
7218;DHT22;3650;53.580;10.094;2023-05-27T14:36:00;21.90;27.80
7218;DHT22;3650;53.580;10.094;2023-05-27T14:38:27;22.10;25.70
7218;DHT22;3650;53.580;10.094;2023-05-27T14:40:53;22.20;27.50
7218;DHT22;3650;53.580;10.094;2023-05-27T14:43:21;22.50;25.00
7218;DHT22;3650;53.580;10.094;2023-05-27T14:45:48;22.80;24.60
7218;DHT22;3650;53.580;10.094;2023-05-27T14:48:16;23.00;25.20
7218;DHT22;3650;53.580;10.094;2023-05-27T14:50:43;23.20;24.50
7218;DHT22;3650;53.580;10.094;2023-05-27T14:53:10;23.40;24.30
7218;DHT22;3650;53.580;10.094;2023-05-27T14:55:37;23.70;24.50
7218;DHT22;3650;53.580;10.094;2023-05-27T14:58:04;23.80;23.40
7218;DHT22;3650;53.580;10.094;2023-05-27T15:00:32;23.90;23.40
7218;DHT22;3650;53.580;10.094;2023-05-27T15:02:59;23.90;22.10
7218;DHT22;3650;53.580;10.094;2023-05-27T15:05:27;23.80;22.10
7218;DHT22;3650;53.580;10.094;2023-05-27T15:07:54;23.50;21.80
7218;DHT22;3650;53.580;10.094;2023-05-27T15:10:21;23.10;21.40
7218;DHT22;3650;53.580;10.094;2023-05-27T15:12:47;22.90;22.30
7218;DHT22;3650;53.580;10.094;2023-05-27T15:15:16;22.70;23.70
7218;DHT22;3650;53.580;10.094;2023-05-27T15:17:44;22.60;24.30
7218;DHT22;3650;53.580;10.094;2023-05-27T15:20:11;22.50;25.20
7218;DHT22;3650;53.580;10.094;2023-05-27T15:22:40;22.40;25.30
7218;DHT22;3650;53.580;10.094;2023-05-27T15:25:07;22.30;25.40
7218;DHT22;3650;53.580;10.094;2023-05-27T15:27:34;22.20;23.90
7218;DHT22;3650;53.580;10.094;2023-05-27T15:30:02;22.10;24.30
7218;DHT22;3650;53.580;10.094;2023-05-27T15:32:29;22.00;23.10
7218;DHT22;3650;53.580;10.094;2023-05-27T15:34:57;21.80;23.80
7218;DHT22;3650;53.580;10.094;2023-05-27T15:37:26;21.70;25.40
7218;DHT22;3650;53.580;10.094;2023-05-27T15:39:54;21.70;25.00
7218;DHT22;3650;53.580;10.094;2023-05-27T15:42:21;21.70;26.10
7218;DHT22;3650;53.580;10.094;2023-05-27T15:44:49;21.60;25.80
7218;DHT22;3650;53.580;10.094;2023-05-27T15:47:16;21.70;26.00